Blanket, TX

4:18 AM CDT on September 20, 2014 (GMT -0500)
Coleman Municipal | Change Station
CLOSE
Current Station
Airport
Location: Coleman,
Elevation: 1696 ft
Nearby Weather Stations

Elev 1696 ft 31.84 °N, 99.41 °W | Updated 23 minutes ago

Mostly Cloudy
Mostly Cloudy
72 °F
Feels Like 72 °F
N
6
Wind Variable Wind from SE

Today
High -- | Low -- °F
--% Chance of Precip.
Yesterday
High -- | Low -- °F
Precip. -- in
7:22 AM 7:34 PM
Waning Crescent, 13% visible
Pressure 29.97 in
Visibility 5.0 miles
Clouds Scattered Clouds 600 ft
Mostly Cloudy 1000 ft
Overcast 2100 ft
Dew Point 71 °F
Humidity 94%
Rainfall 0.00 in
Snow Depth Not available.
UV 0 out of 12
Pollen 7.00 out of 12
Air Quality Not available.
Flu Activity Not available.
METAR KCOM 200855Z AUTO 14005KT 5SM BR SCT006 BKN010 OVC021 23/22 A2997 RMK AO2 T02250215

More Conditions Fewer Conditions

Pressure 29.97 in
Visibility 5.0 miles
Clouds Scattered Clouds 600 ft
Mostly Cloudy 1000 ft
Overcast 2100 ft
Dew Point 71 °F
Humidity 94%
Rainfall 0.00 in
Snow Depth Not available.
UV 0 out of 12
Pollen 7.00 out of 12
Air Quality Not available.
Flu Activity Not available.
METAR KCOM 200855Z AUTO 14005KT 5SM BR SCT006 BKN010 OVC021 23/22 A2997 RMK AO2 T02250215

More Conditions Fewer Conditions

10-Day Weather Forecast

Almanac

Astronomy

Sep. 20, 2014 Rise Set
Actual Time 7:22 AM CDT 7:34 PM CDT
Civil Twilight 6:57 AM CDT 7:58 PM CDT
Nautical Twilight 6:29 AM CDT 8:27 PM CDT
Astronomical Twilight 6:00 AM CDT 8:55 PM CDT
Moon 4:12 AM CDT 5:30 PM CDT
Length of Visible Light 13h 00m
Length of Day
12h 12m
Tomorrow will be 1m 57s shorter.
Waning Crescent, 13% of the Moon is Illuminated
Today
Waning Crescent
Sep 24
New
Oct 1
First Quarter
Oct 8
Full
Oct 15
Last Quarter

Today's Extremes

State Highs State Lows

Community

WunderPhotos

Upload Photos

1,754,794 photos uploaded!

WunderBlogs® & News

Nearby

Snow Depth

Station Depth Elevation
No new snow has been reported.

Earthquake Activity

City Distance Mag. Time & Date
No recent earthquake activity has been reported nearby.
Minimum magnitude displayed is 2.5.

Coastal Water Temperatures

Place Temperature
No Stations Reporting

Nearby Weather Stations